createdAt,value
2023-05-22T00:00:37.327Z,43.8
2023-05-22T00:01:53.641Z,43.8
2023-05-22T00:03:09.928Z,43.8
2023-05-22T00:04:25.350Z,43.8
2023-05-22T00:05:41.718Z,43.8
2023-05-22T00:06:57.929Z,43.8
2023-05-22T00:08:14.233Z,43.8
2023-05-22T00:10:46.811Z,43.8
2023-05-22T00:13:19.400Z,43.8
2023-05-22T00:14:35.696Z,43.8
2023-05-22T00:15:51.982Z,43.8
2023-05-22T00:17:08.288Z,43.8
2023-05-22T00:18:24.592Z,43.8
2023-05-22T00:19:40.878Z,43.8
2023-05-22T00:20:56.284Z,43.8
2023-05-22T00:23:28.883Z,43.8
2023-05-22T00:24:45.173Z,43.8
2023-05-22T00:26:01.458Z,43.8
2023-05-22T00:31:06.730Z,43.8
2023-05-22T00:33:39.235Z,43.8
2023-05-22T00:34:55.520Z,43.8
2023-05-22T00:36:11.831Z,43.8
2023-05-22T00:37:27.230Z,43.8
2023-05-22T00:38:43.525Z,43.8
2023-05-22T00:39:59.821Z,43.8
2023-05-22T00:41:16.122Z,43.8
2023-05-22T00:43:48.711Z,43.8
2023-05-22T00:45:05.002Z,43.8
2023-05-22T00:46:21.294Z,43.8
2023-05-22T00:47:37.585Z,43.8
2023-05-22T00:48:53.901Z,43.8
2023-05-22T00:51:26.469Z,43.8
2023-05-22T00:52:42.775Z,43.8
2023-05-22T00:53:59.071Z,43.8
2023-05-22T00:55:15.363Z,43.8
2023-05-22T00:56:30.862Z,43.8
2023-05-22T00:59:03.365Z,43.8
2023-05-22T01:00:19.656Z,43.8
2023-05-22T01:01:35.961Z,43.8
2023-05-22T01:04:08.552Z,43.8
2023-05-22T01:05:24.844Z,43.8
2023-05-22T01:06:41.123Z,43.8
2023-05-22T01:09:13.725Z,43.6
2023-05-22T01:10:30.017Z,43.8
2023-05-22T01:11:46.309Z,43.6
2023-05-22T01:15:34.314Z,43.6
2023-05-22T01:16:50.601Z,43.6
2023-05-22T01:18:06.897Z,43.6
2023-05-22T01:19:23.189Z,43.6
2023-05-22T01:20:39.492Z,43.6
2023-05-22T01:21:55.873Z,43.6
2023-05-22T01:23:12.088Z,43.6
2023-05-22T01:24:28.368Z,43.6
2023-05-22T01:25:44.664Z,43.6
2023-05-22T01:27:00.955Z,43.6
2023-05-22T01:29:33.562Z,43.6
2023-05-22T01:30:49.841Z,43.6
2023-05-22T01:32:05.351Z,43.6
2023-05-22T01:34:37.847Z,43.6
2023-05-22T01:35:54.152Z,43.6
2023-05-22T01:37:10.440Z,43.6
2023-05-22T01:38:26.736Z,43.6
2023-05-22T01:39:43.025Z,43.6
2023-05-22T01:40:59.373Z,43.6
2023-05-22T01:42:15.674Z,43.6
2023-05-22T01:43:31.971Z,43.6
2023-05-22T01:44:48.261Z,43.6
2023-05-22T01:47:20.884Z,43.6
2023-05-22T01:48:36.276Z,43.6
2023-05-22T01:49:52.554Z,43.6
2023-05-22T01:51:08.866Z,43.6
2023-05-22T01:52:25.148Z,43.6
2023-05-22T01:54:57.733Z,43.6
2023-05-22T01:56:14.031Z,43.6
2023-05-22T01:57:30.332Z,43.6
2023-05-22T01:58:46.635Z,43.6
2023-05-22T02:00:02.950Z,43.5
2023-05-22T02:01:19.222Z,43.5
2023-05-22T02:02:35.539Z,43.5
2023-05-22T02:03:51.794Z,43.6
2023-05-22T02:05:07.212Z,43.5
2023-05-22T02:06:23.514Z,43.5
2023-05-22T02:07:39.802Z,43.5
2023-05-22T02:10:12.386Z,43.5
2023-05-22T02:11:28.684Z,43.5
2023-05-22T02:12:44.984Z,43.5
2023-05-22T02:14:01.269Z,43.5
2023-05-22T02:15:17.572Z,43.5
2023-05-22T02:16:33.869Z,43.5
2023-05-22T02:17:50.166Z,43.5
2023-05-22T02:20:22.760Z,43.5
2023-05-22T02:21:38.162Z,43.5
2023-05-22T02:22:54.494Z,43.5
2023-05-22T02:25:27.059Z,43.5
2023-05-22T02:26:43.349Z,43.5
2023-05-22T02:27:59.671Z,43.5
2023-05-22T02:29:15.934Z,43.5
2023-05-22T02:30:32.229Z,43.5
2023-05-22T02:31:48.527Z,43.5
2023-05-22T02:33:04.826Z,43.5
2023-05-22T02:34:21.112Z,43.5
2023-05-22T02:35:37.401Z,43.5
2023-05-22T02:36:53.697Z,43.5
2023-05-22T02:38:09.111Z,43.5
2023-05-22T02:40:41.707Z,43.5
2023-05-22T02:41:57.991Z,43.5
2023-05-22T02:43:14.326Z,43.5
2023-05-22T02:45:46.889Z,43.5
2023-05-22T02:47:03.186Z,43.5
2023-05-22T02:48:19.476Z,43.5
2023-05-22T02:52:08.351Z,43.5
2023-05-22T02:53:24.655Z,43.5
2023-05-22T02:55:56.359Z,43.5
2023-05-22T02:57:12.646Z,43.5
2023-05-22T02:58:28.946Z,43.5
2023-05-22T02:59:45.246Z,43.5
2023-05-22T03:01:01.531Z,43.5
2023-05-22T03:02:17.821Z,43.5
2023-05-22T03:03:34.117Z,43.5
2023-05-22T03:06:06.717Z,43.5
2023-05-22T03:07:23.013Z,43.5
2023-05-22T03:08:39.295Z,43.5
2023-05-22T03:11:11.901Z,43.5
2023-05-22T03:12:27.306Z,43.5
2023-05-22T03:13:43.604Z,43.5
2023-05-22T03:17:32.475Z,43.5
2023-05-22T03:18:48.771Z,43.5
2023-05-22T03:21:21.364Z,43.5
2023-05-22T03:22:36.811Z,43.5
2023-05-22T03:23:53.095Z,43.5
2023-05-22T03:26:25.679Z,43.5
2023-05-22T03:27:41.979Z,43.5
2023-05-22T03:28:58.283Z,43.5
2023-05-22T03:30:14.566Z,43.4
2023-05-22T03:32:47.161Z,43.4
2023-05-22T03:34:03.446Z,43.4
2023-05-22T03:35:19.742Z,43.4
2023-05-22T03:36:36.044Z,43.4
2023-05-22T03:39:08.622Z,43.4
2023-05-22T03:42:57.524Z,43.4
2023-05-22T03:44:12.930Z,43.4
2023-05-22T03:48:01.824Z,43.4
2023-05-22T03:49:18.101Z,43.4
2023-05-22T03:51:50.690Z,43.4
2023-05-22T03:53:06.991Z,43.4
2023-05-22T03:54:23.282Z,43.4
2023-05-22T03:56:55.877Z,43.4
2023-05-22T03:58:12.168Z,43.4
2023-05-22T03:59:28.498Z,43.4
2023-05-22T04:04:32.769Z,43.4
2023-05-22T04:05:49.045Z,43.4
2023-05-22T04:08:21.644Z,43.4
2023-05-22T04:09:37.975Z,43.4
2023-05-22T04:10:54.227Z,43.4
2023-05-22T04:12:10.529Z,43.4
2023-05-22T04:13:26.816Z,43.4
2023-05-22T04:14:43.114Z,43.4
2023-05-22T04:17:15.714Z,43.4
2023-05-22T04:19:47.452Z,43.4
2023-05-22T04:22:19.994Z,43.4
2023-05-22T04:24:52.583Z,43.4
2023-05-22T04:26:08.884Z,43.4
2023-05-22T04:27:25.178Z,43.4
2023-05-22T04:28:41.467Z,43.4
2023-05-22T04:29:57.779Z,43.4
2023-05-22T04:31:14.063Z,43.4
2023-05-22T04:32:30.360Z,43.4
2023-05-22T04:33:46.656Z,43.4
2023-05-22T04:35:02.107Z,43.4
2023-05-22T04:37:34.656Z,43.4
2023-05-22T04:38:50.951Z,43.4
2023-05-22T04:40:07.244Z,43.4
2023-05-22T04:41:23.541Z,43.4
2023-05-22T04:43:56.136Z,43.4
2023-05-22T04:45:12.417Z,43.4
2023-05-22T04:47:45.003Z,43.4
2023-05-22T04:49:01.301Z,43.4
2023-05-22T04:50:17.593Z,43.4
2023-05-22T04:51:33.014Z,43.4
2023-05-22T04:54:05.602Z,43.4
2023-05-22T04:55:21.902Z,43.4
2023-05-22T04:57:54.490Z,43.4
2023-05-22T04:59:10.773Z,43.4
2023-05-22T05:00:27.080Z,43.4
2023-05-22T05:02:59.663Z,43.4
2023-05-22T05:04:15.968Z,43.4
2023-05-22T05:05:32.259Z,43.4
2023-05-22T05:06:48.552Z,43.9
2023-05-22T05:08:03.961Z,44.1
2023-05-22T05:09:20.252Z,44.4
2023-05-22T05:10:36.595Z,44.5
2023-05-22T05:14:25.437Z,44.5
2023-05-22T05:15:41.773Z,44.5
2023-05-22T05:18:14.330Z,44.6
2023-05-22T05:19:30.623Z,44.8
2023-05-22T05:20:46.950Z,45
2023-05-22T05:23:19.491Z,44.8
2023-05-22T05:24:34.914Z,44.6
2023-05-22T05:25:51.215Z,44.5
2023-05-22T05:28:23.792Z,44.1
2023-05-22T05:29:40.088Z,44.4
2023-05-22T05:30:56.387Z,44.4
2023-05-22T05:33:28.973Z,44.7
2023-05-22T05:34:45.278Z,44.8
2023-05-22T05:36:01.605Z,44.9
2023-05-22T05:37:17.855Z,45
2023-05-22T05:38:34.164Z,45
2023-05-22T05:39:50.438Z,45
2023-05-22T05:41:05.859Z,45.2
2023-05-22T05:43:38.458Z,45.3
2023-05-22T05:44:54.745Z,45.5
2023-05-22T05:46:11.038Z,45.5
2023-05-22T05:48:43.631Z,45.6
2023-05-22T05:49:59.934Z,45.7
2023-05-22T05:51:16.224Z,45.8
2023-05-22T05:55:05.104Z,45.8
2023-05-22T05:56:21.400Z,45.9
2023-05-22T06:01:26.567Z,46.8
2023-05-22T06:05:14.572Z,46.9
2023-05-22T06:06:30.884Z,47
2023-05-22T06:10:19.757Z,47.5
2023-05-22T06:11:36.059Z,47.4
2023-05-22T06:16:41.226Z,47.6
2023-05-22T06:21:46.407Z,47.9
2023-05-22T06:24:18.159Z,47.9
2023-05-22T06:26:50.748Z,48.1
2023-05-22T06:29:23.297Z,48
2023-05-22T06:30:39.577Z,47.9
2023-05-22T06:31:55.876Z,48.1
2023-05-22T06:34:28.514Z,47.6
2023-05-22T06:35:44.770Z,47.7
2023-05-22T06:37:01.057Z,47.7
2023-05-22T06:38:17.360Z,48
2023-05-22T06:40:49.932Z,47.8
2023-05-22T06:42:05.364Z,47.4
2023-05-22T06:44:37.000Z,47.9
2023-05-22T06:45:54.247Z,47.7
2023-05-22T06:47:10.537Z,48
2023-05-22T06:49:43.129Z,48.3
2023-05-22T06:50:59.419Z,47.9
2023-05-22T06:52:15.719Z,47.8
2023-05-22T06:53:32.002Z,47.6
2023-05-22T06:54:48.312Z,47.6
2023-05-22T06:56:04.587Z,47.8
2023-05-22T06:57:20.894Z,48.2
2023-05-22T06:58:36.309Z,47.7
2023-05-22T06:59:52.605Z,48.3
2023-05-22T07:01:08.893Z,48.2
2023-05-22T07:02:25.181Z,48.2
2023-05-22T07:03:41.477Z,48
2023-05-22T07:04:57.786Z,48.2
2023-05-22T07:06:14.073Z,48.2
2023-05-22T07:07:30.363Z,48.4
2023-05-22T07:08:46.666Z,49
2023-05-22T07:10:02.947Z,48.5
2023-05-22T07:11:18.407Z,49
2023-05-22T07:12:33.835Z,48.8
2023-05-22T07:13:50.127Z,48.8
2023-05-22T07:15:06.416Z,48.7
2023-05-22T07:16:22.706Z,48.8
2023-05-22T07:17:38.998Z,49.2
2023-05-22T07:18:55.292Z,49
2023-05-22T07:20:11.604Z,49
2023-05-22T07:22:44.193Z,49.3
2023-05-22T07:24:00.487Z,49.2
2023-05-22T07:25:16.781Z,49.3
2023-05-22T07:26:33.057Z,49.5
2023-05-22T07:27:49.354Z,49.5
2023-05-22T07:29:04.768Z,49.5
2023-05-22T07:30:21.077Z,49.5
2023-05-22T07:31:37.376Z,49.7
2023-05-22T07:32:53.653Z,49.5
2023-05-22T07:34:09.956Z,49.5
2023-05-22T07:35:26.255Z,49.6
2023-05-22T07:37:58.847Z,49.5
2023-05-22T07:39:14.283Z,49.7
2023-05-22T07:40:30.564Z,49.5
2023-05-22T07:43:03.153Z,49.1
2023-05-22T07:44:18.624Z,49
2023-05-22T07:45:34.033Z,48.8
2023-05-22T07:46:50.325Z,48.6
2023-05-22T07:49:22.908Z,48.7
2023-05-22T07:50:39.210Z,48.5
2023-05-22T07:51:55.515Z,48.5
2023-05-22T07:53:11.802Z,48.6
2023-05-22T07:54:28.101Z,48.4
2023-05-22T07:55:44.398Z,48.4
2023-05-22T07:58:16.967Z,48.6
2023-05-22T07:59:33.276Z,48.8
2023-05-22T08:00:49.574Z,49.2
2023-05-22T08:03:21.272Z,49.8
2023-05-22T08:04:37.576Z,50.1
2023-05-22T08:05:53.854Z,50.3
2023-05-22T08:08:26.447Z,50.7
2023-05-22T08:09:42.754Z,51
2023-05-22T08:10:59.042Z,51.1
2023-05-22T08:12:15.336Z,51.6
2023-05-22T08:13:31.629Z,51.8
2023-05-22T08:14:47.924Z,51.9
2023-05-22T08:16:04.218Z,52
2023-05-22T08:17:20.509Z,52.2
2023-05-22T08:18:36.806Z,52.1
2023-05-22T08:19:52.234Z,52.4
2023-05-22T08:21:08.523Z,52.3
2023-05-22T08:22:24.821Z,52.4
2023-05-22T08:23:41.118Z,52.6
2023-05-22T08:24:57.407Z,52.6
2023-05-22T08:26:13.692Z,52.8
2023-05-22T08:27:29.991Z,52.7
2023-05-22T08:28:46.279Z,52.8
2023-05-22T08:30:01.744Z,52.8
2023-05-22T08:31:17.152Z,52.6
2023-05-22T08:32:33.443Z,52.7
2023-05-22T08:33:49.747Z,53
2023-05-22T08:35:06.033Z,52.8
2023-05-22T08:36:22.331Z,52.8
2023-05-22T08:40:11.229Z,52.8
2023-05-22T08:41:27.522Z,52.8
2023-05-22T08:42:43.808Z,52.9
2023-05-22T08:44:00.106Z,53.1
2023-05-22T08:45:15.560Z,52.9
2023-05-22T08:46:30.981Z,53.1
2023-05-22T08:49:03.569Z,51.9
2023-05-22T08:52:52.456Z,51.2
2023-05-22T08:54:08.739Z,51.1
2023-05-22T08:55:25.032Z,51.3
2023-05-22T08:56:41.331Z,51.1
2023-05-22T08:57:57.634Z,51
2023-05-22T09:00:30.206Z,51.3
2023-05-22T09:01:46.514Z,51.3
2023-05-22T09:03:01.929Z,51.5
2023-05-22T09:04:18.269Z,51.6
2023-05-22T09:05:34.505Z,51.7
2023-05-22T09:08:07.102Z,51.8
2023-05-22T09:09:23.399Z,51.8
2023-05-22T09:10:39.682Z,51.9
2023-05-22T09:11:55.985Z,51.9
2023-05-22T09:14:28.579Z,52
2023-05-22T09:17:01.159Z,51.9
2023-05-22T09:18:17.468Z,52.8
2023-05-22T09:19:32.874Z,52.7
2023-05-22T09:20:49.160Z,52.7
2023-05-22T09:22:05.469Z,52.8
2023-05-22T09:23:21.753Z,52.6
2023-05-22T09:24:38.057Z,52.7
2023-05-22T09:27:10.638Z,52.8
2023-05-22T09:28:26.945Z,52.7
2023-05-22T09:30:59.519Z,52.8
2023-05-22T09:32:15.809Z,52.9
2023-05-22T09:33:32.105Z,52.8
2023-05-22T09:34:48.406Z,52.8
2023-05-22T09:36:03.821Z,52.1
2023-05-22T09:37:20.114Z,51.8
2023-05-22T09:39:52.716Z,51.3
2023-05-22T09:41:09.010Z,51.2
2023-05-22T09:42:25.293Z,51.1
2023-05-22T09:43:41.589Z,50.9
2023-05-22T09:44:57.888Z,51
2023-05-22T09:46:14.180Z,50.9
2023-05-22T09:47:30.465Z,50.8
2023-05-22T09:48:46.762Z,50.7
2023-05-22T09:51:19.359Z,50.5
2023-05-22T09:52:34.780Z,50.5
2023-05-22T09:56:23.664Z,50.3
2023-05-22T09:57:39.958Z,50.7
2023-05-22T10:00:12.541Z,51.3
2023-05-22T10:01:28.837Z,51.2
2023-05-22T10:02:45.129Z,51
2023-05-22T10:04:01.422Z,51.6
2023-05-22T10:05:17.711Z,51.5
2023-05-22T10:06:34.008Z,51.5
2023-05-22T10:07:50.312Z,51.4
2023-05-22T10:10:23.015Z,51.3
2023-05-22T10:11:39.316Z,51.2
2023-05-22T10:12:55.609Z,50.9
2023-05-22T10:14:11.900Z,51
2023-05-22T10:15:28.184Z,50.7
2023-05-22T10:18:00.793Z,50.5
2023-05-22T10:19:17.070Z,50.3
2023-05-22T10:21:49.660Z,50.4
2023-05-22T10:23:05.955Z,50.2
2023-05-22T10:25:38.545Z,50
2023-05-22T10:26:54.848Z,50
2023-05-22T10:28:11.253Z,49.9
2023-05-22T10:29:27.547Z,49.8
2023-05-22T10:30:43.847Z,49.8
2023-05-22T10:32:00.140Z,49.6
2023-05-22T10:33:16.433Z,49.4
2023-05-22T10:34:32.741Z,49.4
2023-05-22T10:35:49.023Z,49.4
2023-05-22T10:37:05.329Z,49.3
2023-05-22T10:38:21.614Z,49.2
2023-05-22T10:40:54.258Z,48.9
2023-05-22T10:43:26.788Z,48.9
2023-05-22T10:44:43.097Z,48.7
2023-05-22T10:47:14.810Z,48.6
2023-05-22T10:48:31.091Z,48.7
2023-05-22T10:51:03.681Z,48.9
2023-05-22T10:52:19.987Z,49.1
2023-05-22T10:53:36.265Z,49.1
2023-05-22T10:54:52.564Z,49.3
2023-05-22T10:56:08.864Z,49.4
2023-05-22T10:57:25.149Z,49.7
2023-05-22T10:58:41.459Z,49.8
2023-05-22T10:59:57.000Z,50.1
2023-05-22T11:01:14.048Z,49.9
2023-05-22T11:02:29.451Z,50.2
2023-05-22T11:03:45.760Z,50.2
2023-05-22T11:05:02.039Z,50.2
2023-05-22T11:06:18.341Z,50.2
2023-05-22T11:07:34.629Z,50.2
2023-05-22T11:08:50.931Z,50.2
2023-05-22T11:10:07.218Z,50.4
2023-05-22T11:12:39.819Z,50.3
2023-05-22T11:13:56.112Z,50.3
2023-05-22T11:16:28.691Z,50.2
2023-05-22T11:17:44.981Z,50.2
2023-05-22T11:20:17.576Z,50.2
2023-05-22T11:21:33.881Z,50.1
2023-05-22T11:22:49.280Z,50.1
2023-05-22T11:24:05.572Z,50.1
2023-05-22T11:25:21.873Z,50
2023-05-22T11:26:38.167Z,50
2023-05-22T11:27:54.471Z,50
2023-05-22T11:29:10.752Z,50
2023-05-22T11:31:43.339Z,50
2023-05-22T11:32:59.635Z,50
2023-05-22T11:34:15.930Z,50
2023-05-22T11:35:32.227Z,50
2023-05-22T11:39:21.122Z,49.8
2023-05-22T11:40:37.409Z,49.8
2023-05-22T11:41:53.694Z,49.9
2023-05-22T11:43:09.129Z,49.8
2023-05-22T11:44:25.407Z,49.8
2023-05-22T11:45:41.706Z,49.8
2023-05-22T11:46:57.999Z,49.9
2023-05-22T11:49:30.600Z,49.8
2023-05-22T11:50:46.884Z,49.8
2023-05-22T11:52:03.174Z,49.8
2023-05-22T11:53:19.481Z,49.7
2023-05-22T11:55:51.213Z,49.7
2023-05-22T11:57:06.649Z,49.7
2023-05-22T11:58:22.936Z,49.7
2023-05-22T11:59:39.224Z,49.6
2023-05-22T12:03:28.115Z,49.6
2023-05-22T12:04:44.401Z,49.6
2023-05-22T12:07:16.988Z,49.6
2023-05-22T12:08:33.289Z,49.6
2023-05-22T12:09:49.581Z,49.5
2023-05-22T12:12:22.173Z,49.5
2023-05-22T12:13:37.589Z,49.5
2023-05-22T12:14:53.882Z,49.5
2023-05-22T12:16:10.174Z,49.5
2023-05-22T12:17:26.476Z,49.4
2023-05-22T12:18:42.761Z,49.5
2023-05-22T12:19:59.067Z,49.4
2023-05-22T12:21:15.349Z,49.4
2023-05-22T12:22:31.647Z,49.4
2023-05-22T12:23:47.951Z,49.4
2023-05-22T12:25:04.235Z,49.4
2023-05-22T12:26:20.549Z,49.4
2023-05-22T12:30:09.421Z,49.3
2023-05-22T12:31:25.706Z,49.3
2023-05-22T12:32:42.009Z,49.3
2023-05-22T12:35:13.720Z,49.3
2023-05-22T12:37:46.298Z,49.3
2023-05-22T12:39:02.611Z,49.2
2023-05-22T12:40:18.888Z,49.2
2023-05-22T12:41:35.193Z,49.2
2023-05-22T12:42:51.496Z,49.2
2023-05-22T12:45:24.079Z,49.2
2023-05-22T12:46:40.366Z,49.2
2023-05-22T12:47:56.656Z,49.1
2023-05-22T12:49:12.961Z,49.1
2023-05-22T12:50:29.254Z,49.1
2023-05-22T12:51:45.547Z,49.1
2023-05-22T12:54:17.262Z,49.1
2023-05-22T12:55:33.557Z,49.1
2023-05-22T12:56:49.836Z,49
2023-05-22T12:58:06.137Z,49.1
2023-05-22T12:59:22.434Z,49
2023-05-22T13:00:38.720Z,49
2023-05-22T13:03:11.306Z,49
2023-05-22T13:04:27.601Z,48.9
2023-05-22T13:05:43.913Z,49
2023-05-22T13:08:16.501Z,48.9
2023-05-22T13:09:31.914Z,48.9
2023-05-22T13:10:48.196Z,48.9
2023-05-22T13:12:04.497Z,48.9
2023-05-22T13:13:20.786Z,48.8
2023-05-22T13:14:37.086Z,48.7
2023-05-22T13:15:53.382Z,48.5
2023-05-22T13:17:09.682Z,48.2
2023-05-22T13:19:42.271Z,48
2023-05-22T13:20:58.558Z,48
2023-05-22T13:23:31.148Z,47.7
2023-05-22T13:24:47.447Z,47.8
2023-05-22T13:26:03.853Z,47.9
2023-05-22T13:27:20.153Z,47.7
2023-05-22T13:28:36.437Z,47.6
2023-05-22T13:31:09.041Z,47.6
2023-05-22T13:32:25.340Z,47.6
2023-05-22T13:33:41.618Z,47.6
2023-05-22T13:36:14.225Z,47.5
2023-05-22T13:41:19.386Z,47.4
2023-05-22T13:42:35.697Z,47.4
2023-05-22T13:45:08.268Z,47.4
2023-05-22T13:46:24.562Z,47.3
2023-05-22T13:47:39.985Z,47.4
2023-05-22T13:48:56.290Z,47.3
2023-05-22T13:50:12.572Z,47.4
2023-05-22T13:51:28.867Z,47.4
2023-05-22T13:54:01.450Z,47.5
2023-05-22T13:55:17.761Z,47.5
2023-05-22T13:56:34.041Z,47.5
2023-05-22T13:59:06.639Z,47.5
2023-05-22T14:00:22.939Z,47.5
2023-05-22T14:01:39.218Z,47.5
2023-05-22T14:04:11.817Z,47.5
2023-05-22T14:05:28.110Z,47.5
2023-05-22T14:06:44.404Z,47.4
2023-05-22T14:07:59.819Z,47.4
2023-05-22T14:10:32.405Z,47.4
2023-05-22T14:11:48.704Z,47.4
2023-05-22T14:14:21.284Z,47.5
2023-05-22T14:19:26.464Z,47.5
2023-05-22T14:20:42.760Z,47.5
2023-05-22T14:21:59.059Z,47.5
2023-05-22T14:24:31.645Z,47.4
2023-05-22T14:25:47.942Z,47.4
2023-05-22T14:27:04.243Z,47.4
2023-05-22T14:29:35.946Z,47.4
2023-05-22T14:30:52.231Z,47.4
2023-05-22T14:32:08.535Z,47.4
2023-05-22T14:34:41.131Z,47.4
2023-05-22T14:35:57.409Z,47.4
2023-05-22T14:37:13.721Z,47.3
2023-05-22T14:39:46.304Z,47.4
2023-05-22T14:41:02.598Z,47.3
2023-05-22T14:42:18.893Z,47.3
2023-05-22T14:44:51.481Z,47.3
2023-05-22T14:47:24.067Z,47.3
2023-05-22T14:49:55.790Z,47.4
2023-05-22T14:52:28.374Z,47.3
2023-05-22T14:53:44.670Z,47.4
2023-05-22T14:55:00.962Z,47.3
2023-05-22T14:56:17.244Z,47.3
2023-05-22T14:57:33.544Z,47.3
2023-05-22T15:01:22.436Z,47.3
2023-05-22T15:02:38.728Z,47.3
2023-05-22T15:03:55.027Z,47.3
2023-05-22T15:05:11.000Z,47.3
2023-05-22T15:06:27.723Z,47.3
2023-05-22T15:07:44.020Z,47.3
2023-05-22T15:09:00.323Z,47.3
2023-05-22T15:10:16.607Z,47.3
2023-05-22T15:11:32.907Z,47.3
2023-05-22T15:12:49.205Z,47.3
2023-05-22T15:14:05.496Z,47.3
2023-05-22T15:15:21.788Z,47.3
2023-05-22T15:16:38.086Z,47.2
2023-05-22T15:17:54.369Z,47.2
2023-05-22T15:19:10.679Z,47.2
2023-05-22T15:20:27.029Z,47.3
2023-05-22T15:21:42.377Z,47.2
2023-05-22T15:22:58.683Z,47.3
2023-05-22T15:24:14.969Z,47.2
2023-05-22T15:26:47.551Z,47.2
2023-05-22T15:28:03.860Z,47.2
2023-05-22T15:29:19.319Z,47.2
2023-05-22T15:30:35.612Z,47.2
2023-05-22T15:31:51.030Z,47.2
2023-05-22T15:33:07.315Z,47.2
2023-05-22T15:34:23.616Z,47.2
2023-05-22T15:35:39.899Z,47.2
2023-05-22T15:36:56.199Z,47.2
2023-05-22T15:38:12.482Z,47.1
2023-05-22T15:39:28.777Z,47.2
2023-05-22T15:40:45.075Z,47.1
2023-05-22T15:42:00.543Z,47.1
2023-05-22T15:43:15.946Z,47.1
2023-05-22T15:45:48.544Z,47.1
2023-05-22T15:47:04.846Z,47.1
2023-05-22T15:48:21.139Z,47.1
2023-05-22T15:49:37.434Z,47.1
2023-05-22T15:50:53.711Z,47.1
2023-05-22T15:52:10.016Z,47.1
2023-05-22T15:53:26.319Z,47.1
2023-05-22T15:54:42.612Z,47.1
2023-05-22T15:55:58.890Z,47.1
2023-05-22T15:57:15.187Z,47.1
2023-05-22T15:58:31.488Z,47.1
2023-05-22T15:59:46.908Z,47.1
2023-05-22T16:01:03.199Z,47.1
2023-05-22T16:02:19.493Z,47.1
2023-05-22T16:03:35.787Z,47
2023-05-22T16:04:52.079Z,47
2023-05-22T16:06:08.374Z,47
2023-05-22T16:07:24.676Z,47
2023-05-22T16:08:40.959Z,47
2023-05-22T16:09:57.259Z,47
2023-05-22T16:11:13.619Z,47
2023-05-22T16:12:28.980Z,47
2023-05-22T16:13:45.291Z,47
2023-05-22T16:15:01.586Z,47
2023-05-22T16:17:34.158Z,47
2023-05-22T16:18:50.460Z,47
2023-05-22T16:20:06.763Z,47
2023-05-22T16:21:23.049Z,47
2023-05-22T16:22:39.352Z,47
2023-05-22T16:23:55.635Z,47
2023-05-22T16:25:11.941Z,47
2023-05-22T16:26:28.219Z,47
2023-05-22T16:27:44.530Z,47
2023-05-22T16:29:00.821Z,47
2023-05-22T16:30:16.228Z,47
2023-05-22T16:31:32.521Z,47
2023-05-22T16:32:48.817Z,46.9
2023-05-22T16:34:05.107Z,46.9
2023-05-22T16:35:21.418Z,46.9
2023-05-22T16:36:37.696Z,46.9
2023-05-22T16:37:53.992Z,46.9
2023-05-22T16:39:10.299Z,46.9
2023-05-22T16:40:26.581Z,46.9
2023-05-22T16:42:59.173Z,46.9
2023-05-22T16:44:15.469Z,46.9
2023-05-22T16:45:31.762Z,46.9
2023-05-22T16:46:47.172Z,46.9
2023-05-22T16:48:03.477Z,46.9
2023-05-22T16:49:19.779Z,46.9
2023-05-22T16:50:36.061Z,46.9
2023-05-22T16:51:52.348Z,46.9
2023-05-22T16:53:08.646Z,46.9
2023-05-22T16:54:24.956Z,46.9
2023-05-22T16:55:41.234Z,46.9
2023-05-22T16:56:57.529Z,47
2023-05-22T16:58:13.835Z,46.9
2023-05-22T16:59:30.126Z,46.9
2023-05-22T17:00:46.428Z,46.9
2023-05-22T17:02:02.709Z,46.9
2023-05-22T17:03:18.122Z,46.9
2023-05-22T17:04:34.434Z,46.9
2023-05-22T17:08:23.319Z,46.9
2023-05-22T17:09:38.760Z,47
2023-05-22T17:12:10.468Z,46.9
2023-05-22T17:13:26.764Z,46.9
2023-05-22T17:14:43.065Z,46.9
2023-05-22T17:15:59.368Z,46.9
2023-05-22T17:17:15.653Z,46.9
2023-05-22T17:18:31.954Z,46.9
2023-05-22T17:19:48.233Z,46.9
2023-05-22T17:23:37.128Z,46.9
2023-05-22T17:24:53.429Z,46.8
2023-05-22T17:26:08.877Z,46.8
2023-05-22T17:28:40.578Z,46.9
2023-05-22T17:29:56.878Z,46.9
2023-05-22T17:31:13.181Z,46.8
2023-05-22T17:33:45.773Z,46.9
2023-05-22T17:35:02.048Z,46.9
2023-05-22T17:36:18.343Z,46.8
2023-05-22T17:37:34.647Z,46.8
2023-05-22T17:38:50.946Z,46.8
2023-05-22T17:40:07.243Z,46.8
2023-05-22T17:41:23.538Z,46.8
2023-05-22T17:42:39.824Z,46.8
2023-05-22T17:43:55.250Z,46.8
2023-05-22T17:45:11.524Z,46.8
2023-05-22T17:46:27.834Z,46.8
2023-05-22T17:47:44.130Z,46.8
2023-05-22T17:49:00.412Z,46.8
2023-05-22T17:50:16.000Z,46.8
2023-05-22T17:51:33.006Z,46.8
2023-05-22T17:54:05.604Z,46.8
2023-05-22T17:55:21.894Z,46.8
2023-05-22T17:56:38.175Z,46.7
2023-05-22T17:59:10.769Z,46.7
2023-05-22T18:00:26.189Z,46.7
2023-05-22T18:01:42.483Z,46.7
2023-05-22T18:02:58.769Z,46.7
2023-05-22T18:04:15.075Z,46.7
2023-05-22T18:05:31.361Z,46.7
2023-05-22T18:06:47.659Z,46.7
2023-05-22T18:08:03.950Z,46.7
2023-05-22T18:10:36.555Z,46.7
2023-05-22T18:11:52.837Z,46.7
2023-05-22T18:13:09.138Z,46.7
2023-05-22T18:14:25.439Z,46.7
2023-05-22T18:15:41.717Z,46.7
2023-05-22T18:16:57.138Z,46.7
2023-05-22T18:18:13.505Z,46.7
2023-05-22T18:19:29.729Z,46.7
2023-05-22T18:20:46.026Z,46.7
2023-05-22T18:22:02.319Z,46.6
2023-05-22T18:23:18.683Z,46.6
2023-05-22T18:24:34.904Z,46.6
2023-05-22T18:25:50.359Z,46.6
2023-05-22T18:28:22.070Z,46.6
2023-05-22T18:29:38.374Z,46.6
2023-05-22T18:30:54.672Z,46.6
2023-05-22T18:32:10.955Z,46.6
2023-05-22T18:33:27.252Z,46.6
2023-05-22T18:34:43.550Z,46.6
2023-05-22T18:35:59.851Z,46.6
2023-05-22T18:37:16.144Z,46.6
2023-05-22T18:38:32.438Z,46.6
2023-05-22T18:39:48.720Z,46.6
2023-05-22T18:41:05.018Z,46.6
2023-05-22T18:42:21.306Z,46.6
2023-05-22T18:43:36.719Z,46.6
2023-05-22T18:44:53.027Z,46.6
2023-05-22T18:46:09.323Z,46.5
2023-05-22T18:47:25.618Z,46.5
2023-05-22T18:49:58.196Z,46.5
2023-05-22T18:51:13.651Z,46.5
2023-05-22T18:52:29.081Z,46.5
2023-05-22T18:53:45.373Z,46.5
2023-05-22T18:55:01.674Z,46.5
2023-05-22T18:56:17.951Z,46.5
2023-05-22T18:57:34.245Z,46.5
2023-05-22T18:58:50.541Z,46.5
2023-05-22T19:00:06.844Z,46.5
2023-05-22T19:01:23.129Z,46.5
2023-05-22T19:02:39.440Z,46.5
2023-05-22T19:03:54.884Z,46.5
2023-05-22T19:05:10.294Z,46.5
2023-05-22T19:06:26.597Z,46.5
2023-05-22T19:07:42.889Z,46.5
2023-05-22T19:08:59.260Z,46.5
2023-05-22T19:10:15.484Z,46.5
2023-05-22T19:11:31.766Z,46.5
2023-05-22T19:12:48.078Z,46.5
2023-05-22T19:15:20.661Z,46.5
2023-05-22T19:16:36.960Z,46.5
2023-05-22T19:17:53.249Z,46.5
2023-05-22T19:19:09.553Z,46.4
2023-05-22T19:20:25.831Z,46.5
2023-05-22T19:21:41.254Z,46.5
2023-05-22T19:22:57.551Z,46.4
2023-05-22T19:24:13.842Z,46.4
2023-05-22T19:25:30.130Z,46.4
2023-05-22T19:26:46.439Z,46.4
2023-05-22T19:28:02.722Z,46.4
2023-05-22T19:29:19.054Z,46.4
2023-05-22T19:30:34.510Z,46.4
2023-05-22T19:31:49.945Z,46.4
2023-05-22T19:33:06.223Z,46.4
2023-05-22T19:34:22.521Z,46.4
2023-05-22T19:35:38.829Z,46.4
2023-05-22T19:36:55.108Z,46.4
2023-05-22T19:38:11.415Z,46.4
2023-05-22T19:40:43.998Z,46.4
2023-05-22T19:42:00.285Z,46.4
2023-05-22T19:43:16.596Z,46.4
2023-05-22T19:44:32.882Z,46.4
2023-05-22T19:45:49.165Z,46.4
2023-05-22T19:47:05.466Z,46.4
2023-05-22T19:48:20.893Z,46.4
2023-05-22T19:49:37.186Z,46.4
2023-05-22T19:50:53.477Z,46.4
2023-05-22T19:52:09.776Z,46.4
2023-05-22T19:54:42.354Z,46.4
2023-05-22T19:55:57.823Z,46.4
2023-05-22T19:57:13.239Z,46.3
2023-05-22T19:58:29.518Z,46.3
2023-05-22T19:59:45.852Z,46.3
2023-05-22T20:01:02.108Z,46.3
2023-05-22T20:02:18.401Z,46.3
2023-05-22T20:03:34.695Z,46.3
2023-05-22T20:04:51.030Z,46.3
2023-05-22T20:07:23.595Z,46.3
2023-05-22T20:08:39.876Z,46.3
2023-05-22T20:09:56.168Z,46.3
2023-05-22T20:11:12.465Z,46.3
2023-05-22T20:12:28.763Z,46.3
2023-05-22T20:13:44.177Z,46.3
2023-05-22T20:15:00.483Z,46.3
2023-05-22T20:16:16.779Z,46.3
2023-05-22T20:17:33.062Z,46.3
2023-05-22T20:18:49.363Z,46.3
2023-05-22T20:20:05.656Z,46.3
2023-05-22T20:21:21.950Z,46.3
2023-05-22T20:22:37.403Z,46.3
2023-05-22T20:23:52.821Z,46.3
2023-05-22T20:25:09.107Z,46.3
2023-05-22T20:26:25.418Z,46.2
2023-05-22T20:27:40.837Z,46.3
2023-05-22T20:28:57.131Z,46.2
2023-05-22T20:31:29.727Z,46.2
2023-05-22T20:32:46.015Z,46.2
2023-05-22T20:34:02.315Z,46.3
2023-05-22T20:35:18.614Z,46.3
2023-05-22T20:36:34.904Z,46.2
2023-05-22T20:37:51.209Z,46.3
2023-05-22T20:39:07.506Z,46.3
2023-05-22T20:40:23.795Z,46.3
2023-05-22T20:41:40.085Z,46.2
2023-05-22T20:42:56.375Z,46.3
2023-05-22T20:44:11.788Z,46.3
2023-05-22T20:45:28.085Z,46.2
2023-05-22T20:46:44.375Z,46.2
2023-05-22T20:48:00.682Z,46.2
2023-05-22T20:50:33.274Z,46.2
2023-05-22T20:51:49.567Z,46.2